Chatham, Louisiana
Current Conditions -  °F | °C
As of 11:35 AM on Monday 22 Dec 2014 (Local Time) from KRSN Reporting Station
Overcast Overcast  
Wind Chill: 58°   Ceiling: 800
Heat Index: 58°   Visibility: 10mi
Dew Point: 56°   Wind: 9mph
Humidity: 94%   Direction: 170°S
Pressure: 29.74"   Gusts: NA
Location:  32.31°N, 92.45°W
Report Text: KRSN 221735Z AUTO 17008KT 10SM OVC008 15/14 A2974 RMK AO2 LTG DSNT E T01450135
Loading
Personal Weather Stations






























Interactive Weather Map New forecast layout! Learn more

10-Day Weather Forecast

Advertisements
Track Severe Weather on mobile